Bumi Airport


Codes: FVBM/BZH
Name: Bumi Airport
City: Bumi
Country: Zimbabwe
Elevation: 1650 ft.

Photos at Bumi Airport


   Photos courtesy of SpottingLog. You can add your own sightings and photos by signing up for a free trial today.



No photos found.

Weather at Bumi Airport


Time (UTC)DescriptionTempratureWindCloud coverageVisibilityPressureHumidity
23-May-2024 21:00Broken Clouds23°C4 mph, NE83%10000m1017hPa65%
24-May-2024 00:00Broken Clouds22°C2 mph, NE82%10000m1017hPa70%
24-May-2024 03:00Broken Clouds20°C7 mph, NE75%10000m1018hPa77%
24-May-2024 06:00Broken Clouds21°C7 mph, N65%10000m1020hPa74%
24-May-2024 09:00Broken Clouds23°C4 mph, NE67%10000m1020hPa64%
24-May-2024 12:00Broken Clouds25°C2 mph, E83%10000m1016hPa55%
24-May-2024 15:00Overcast Clouds26°C7 mph, E86%10000m1015hPa53%
24-May-2024 18:00Overcast Clouds25°C2 mph, E89%10000m1016hPa56%
24-May-2024 21:00Overcast Clouds23°C4 mph, NW92%10000m1016hPa62%
25-May-2024 00:00Broken Clouds22°C4 mph, E78%10000m1016hPa63%
25-May-2024 03:00Scattered Clouds20°C4 mph, NE39%10000m1018hPa68%
25-May-2024 06:00Scattered Clouds22°C7 mph, NE33%10000m1020hPa60%
25-May-2024 09:00Clear Sky25°C7 mph, NE9%10000m1020hPa47%
25-May-2024 12:00Clear Sky26°C2 mph, N10%10000m1016hPa43%
25-May-2024 15:00Few Clouds26°C2 mph, W21%10000m1015hPa44%
25-May-2024 18:00Few Clouds24°C2 mph, SW11%10000m1016hPa53%
25-May-2024 21:00Clear Sky23°C7 mph, NE0%10000m1017hPa54%
26-May-2024 00:00Clear Sky21°C9 mph, E0%10000m1018hPa59%
26-May-2024 03:00Clear Sky20°C7 mph, NE3%10000m1018hPa64%
26-May-2024 06:00Clear Sky21°C7 mph, NE2%10000m1021hPa61%
26-May-2024 09:00Clear Sky24°C7 mph, NE4%10000m1020hPa53%
26-May-2024 12:00Clear Sky26°C2 mph, N5%10000m1016hPa48%
26-May-2024 15:00Broken Clouds26°C4 mph, W73%10000m1015hPa47%
26-May-2024 18:00Broken Clouds24°C0 mph, S52%10000m1017hPa55%
26-May-2024 21:00Clear Sky23°C4 mph, N9%10000m1018hPa56%
27-May-2024 00:00Few Clouds21°C4 mph, E14%10000m1018hPa61%
27-May-2024 03:00Few Clouds20°C4 mph, NE12%10000m1019hPa64%
27-May-2024 06:00Few Clouds21°C4 mph, NE16%10000m1022hPa59%
27-May-2024 09:00Few Clouds24°C7 mph, NE14%10000m1021hPa50%
27-May-2024 12:00Few Clouds26°C4 mph, N13%10000m1017hPa42%
27-May-2024 15:00Clear Sky26°C4 mph, W0%10000m1016hPa45%
27-May-2024 18:00Clear Sky24°C0 mph, NE0%10000m1018hPa53%
27-May-2024 21:00Clear Sky22°C9 mph, NE3%10000m1020hPa54%
28-May-2024 00:00Clear Sky21°C13 mph, NE2%10000m1021hPa55%
28-May-2024 03:00Clear Sky19°C9 mph, NE0%10000m1022hPa60%
28-May-2024 06:00Clear Sky20°C7 mph, NE0%10000m1024hPa55%
28-May-2024 09:00Clear Sky23°C7 mph, NE0%10000m1023hPa44%
28-May-2024 12:00Clear Sky25°C2 mph, NW0%10000m1019hPa37%
28-May-2024 15:00Clear Sky25°C4 mph, W0%10000m1018hPa37%
28-May-2024 18:00Clear Sky23°C2 mph, NE0%10000m1019hPa42%